Time;durP1;ratioP1;P1;durP2;ratioP2;P2;SDS_P1;SDS_P2;PMS_P1;PMS_P2;Temp;Humidity;BMP_temperature;BMP_pressure;BME280_temperature;BME280_humidity;BME280_pressure;Samples;Min_cycle;Max_cycle;Signal;HPM_P1;HPM_P2
2021/12/16 00:01:43;;;;;;;12.17;5.07;;;-3.20;99.90;;;;;;2208840;64;20500;-34
2021/12/16 00:08:40;;;;;;;18.00;4.53;;;-3.20;99.90;;;;;;2211534;64;20109;-32
2021/12/16 00:11:26;;;;;;;15.77;4.23;;;-3.20;99.90;;;;;;2211499;64;20106;-34
2021/12/16 00:19:50;;;;;;;13.63;3.88;;;-3.20;99.90;;;;;;2218790;64;20093;-32
2021/12/16 00:31:03;;;;;;;15.00;5.13;;;-3.20;99.90;;;;;;2220280;64;20112;-33
2021/12/16 00:33:33;;;;;;;16.67;5.67;;;-3.20;99.90;;;;;;2220413;64;20092;-32
2021/12/16 00:36:02;;;;;;;14.80;5.57;;;-3.20;99.90;;;;;;2220532;64;20105;-34
2021/12/16 00:38:28;;;;;;;16.07;4.83;;;-3.20;99.90;;;;;;2220451;64;20084;-33
2021/12/16 00:40:56;;;;;;;18.47;6.80;;;-3.20;99.90;;;;;;2220284;64;20103;-32
2021/12/16 00:43:34;;;;;;;17.17;6.97;;;-3.20;99.90;;;;;;2220445;64;20170;-32
2021/12/16 00:56:32;;;;;;;20.90;6.13;;;-3.20;99.90;;;;;;2216622;64;20092;-32
2021/12/16 00:59:01;;;;;;;10.20;3.87;;;-3.20;99.90;;;;;;2204396;64;20116;-32
2021/12/16 01:01:40;;;;;;;13.77;4.83;;;-3.20;99.90;;;;;;2204424;64;20085;-34
2021/12/16 01:46:07;;;;;;;20.27;6.88;;;-3.20;99.90;;;;;;2216187;64;20096;-34
2021/12/16 01:51:23;;;;;;;20.93;7.87;;;-3.20;99.90;;;;;;2215129;64;20100;-38
2021/12/16 01:54:29;;;;;;;22.30;6.13;;;-3.20;99.90;;;;;;2215388;64;20182;-39
2021/12/16 01:57:03;;;;;;;14.10;4.43;;;-3.20;99.90;;;;;;2207340;64;20101;-38
2021/12/16 01:59:35;;;;;;;21.67;6.43;;;-3.20;99.90;;;;;;2204406;64;20097;-38
2021/12/16 02:02:27;;;;;;;25.27;5.97;;;-3.30;99.90;;;;;;2204260;64;20669;-34
2021/12/16 02:08:12;;;;;;;15.20;4.82;;;-3.30;99.90;;;;;;2207257;64;20096;-39
2021/12/16 02:10:42;;;;;;;17.00;6.00;;;-3.20;99.90;;;;;;2204166;64;20569;-33
2021/12/16 02:35:30;;;;;;;30.47;7.77;;;-3.20;99.90;;;;;;2219299;64;20192;-32
2021/12/16 02:37:21;;;;;;;23.27;5.55;;;-3.20;99.90;;;;;;2213958;64;20168;-34
2021/12/16 02:39:48;;;;;;;24.27;7.00;;;-3.20;99.90;;;;;;2218996;64;20172;-34
2021/12/16 02:42:19;;;;;;;31.90;8.33;;;-3.20;99.90;;;;;;2216095;64;20093;-32
2021/12/16 02:50:14;;;;;;;22.85;6.65;;;-3.20;99.90;;;;;;2219734;64;20090;-39
2021/12/16 02:52:41;;;;;;;36.43;8.43;;;-3.20;99.90;;;;;;2220008;64;20084;-48
2021/12/16 02:55:08;;;;;;;27.00;7.47;;;-3.20;99.90;;;;;;2223163;64;20476;-40
2021/12/16 02:57:43;;;;;;;36.23;8.47;;;-3.20;99.90;;;;;;2220103;64;20096;-33
2021/12/16 03:00:13;;;;;;;26.90;7.07;;;-3.20;99.90;;;;;;2219996;64;20683;-32
2021/12/16 03:02:40;;;;;;;44.97;12.87;;;-3.20;99.90;;;;;;2220040;64;20138;-33
2021/12/16 03:05:08;;;;;;;22.40;5.80;;;-3.20;99.90;;;;;;2220008;64;20096;-33
2021/12/16 03:07:35;;;;;;;32.67;8.13;;;-3.20;99.90;;;;;;2219948;64;20177;-32
2021/12/16 03:18:26;;;;;;;14.93;5.73;;;-3.00;99.90;;;;;;2213827;64;20222;-41
2021/12/16 03:20:59;;;;;;;21.50;5.90;;;-3.10;99.90;;;;;;2219783;64;20092;-34
2021/12/16 03:26:31;;;;;;;19.63;6.13;;;-3.00;99.90;;;;;;2219822;64;20089;-36
2021/12/16 03:39:02;;;;;;;19.10;6.67;;;-3.00;99.90;;;;;;2219805;64;20084;-32
2021/12/16 03:41:30;;;;;;;16.53;4.97;;;-3.00;99.90;;;;;;2219622;64;20126;-36
2021/12/16 03:43:59;;;;;;;19.53;5.40;;;-3.00;99.90;;;;;;2219814;64;20569;-34
2021/12/16 03:46:29;;;;;;;19.30;3.90;;;-2.90;99.90;;;;;;2219649;64;20088;-32
2021/12/16 03:49:07;;;;;;;18.00;6.30;;;-2.90;99.90;;;;;;2216717;64;20169;-31
2021/12/16 03:51:39;;;;;;;18.27;5.47;;;-2.90;99.90;;;;;;2220508;64;20192;-35
2021/12/16 03:54:15;;;;;;;16.53;6.00;;;-3.00;99.90;;;;;;2223845;64;20184;-33
2021/12/16 03:56:42;;;;;;;15.40;6.33;;;-2.90;99.90;;;;;;2217540;64;20160;-37
2021/12/16 03:59:10;;;;;;;17.23;5.27;;;-3.00;99.90;;;;;;2223482;64;20488;-37
2021/12/16 04:01:37;;;;;;;26.93;6.57;;;-3.00;99.90;;;;;;2223804;64;20101;-33
2021/12/16 04:04:04;;;;;;;24.27;7.80;;;-3.00;99.90;;;;;;2223622;64;20144;-37
2021/12/16 04:06:32;;;;;;;19.67;7.30;;;-3.00;99.90;;;;;;2220435;64;20103;-32
2021/12/16 04:08:59;;;;;;;18.03;4.60;;;-3.00;99.90;;;;;;2220393;64;20151;-34
2021/12/16 04:11:38;;;;;;;18.67;5.50;;;-3.00;99.90;;;;;;2220422;64;20119;-34
2021/12/16 04:14:06;;;;;;;18.80;4.87;;;-3.00;99.90;;;;;;2223602;64;20103;-33
2021/12/16 04:16:53;;;;;;;18.60;6.33;;;-3.00;99.90;;;;;;2223474;64;20131;-33
2021/12/16 04:19:23;;;;;;;23.30;6.57;;;-3.00;99.90;;;;;;2223596;64;20077;-33
2021/12/16 04:21:54;;;;;;;20.07;6.80;;;-3.00;99.90;;;;;;2223550;64;20103;-37
2021/12/16 04:24:21;;;;;;;21.03;6.83;;;-2.90;99.90;;;;;;2215167;64;20105;-33
2021/12/16 04:26:49;;;;;;;22.77;6.53;;;-3.00;99.90;;;;;;2215402;64;20101;-35
2021/12/16 04:29:17;;;;;;;25.27;8.10;;;-3.00;99.90;;;;;;2215545;64;20100;-34
2021/12/16 04:31:44;;;;;;;23.00;6.70;;;-2.90;99.90;;;;;;2215462;64;20150;-36
2021/12/16 04:34:10;;;;;;;20.27;6.67;;;-3.00;99.90;;;;;;2215531;64;20165;-34
2021/12/16 04:36:37;;;;;;;20.03;5.90;;;-3.00;99.90;;;;;;2215439;64;20120;-37
2021/12/16 04:39:06;;;;;;;19.53;6.43;;;-3.00;99.90;;;;;;2215394;64;20148;-40
2021/12/16 04:41:33;;;;;;;22.77;7.70;;;-2.90;99.90;;;;;;2215475;64;20105;-35
2021/12/16 04:43:59;;;;;;;20.07;6.43;;;-2.90;99.90;;;;;;2212220;64;20524;-35
2021/12/16 04:46:28;;;;;;;20.30;5.37;;;-3.00;99.90;;;;;;2215372;64;20089;-34
2021/12/16 04:48:57;;;;;;;21.33;6.30;;;-2.90;99.90;;;;;;2215236;64;20487;-34
2021/12/16 04:51:25;;;;;;;29.30;7.53;;;-2.90;99.90;;;;;;2212199;64;20145;-33
2021/12/16 04:53:51;;;;;;;21.90;7.23;;;-2.90;99.90;;;;;;2212181;64;20096;-32
2021/12/16 04:56:20;;;;;;;23.63;6.83;;;-2.90;99.90;;;;;;2215426;64;20251;-39
2021/12/16 04:58:48;;;;;;;29.80;8.10;;;-3.00;99.90;;;;;;2212216;64;20093;-37
2021/12/16 05:01:15;;;;;;;22.40;6.87;;;-2.90;99.90;;;;;;2213446;64;20088;-33
2021/12/16 05:03:42;;;;;;;23.70;8.50;;;-2.90;99.90;;;;;;2220220;64;20169;-33
2021/12/16 05:06:09;;;;;;;16.07;5.10;;;-2.90;99.90;;;;;;2220119;64;20109;-34
2021/12/16 05:08:35;;;;;;;31.43;7.60;;;-3.00;99.90;;;;;;2220312;64;20073;-33
2021/12/16 05:11:04;;;;;;;26.87;7.87;;;-2.90;99.90;;;;;;2220116;64;20092;-33
2021/12/16 05:13:31;;;;;;;21.00;7.93;;;-2.90;99.90;;;;;;2220293;64;20143;-32
2021/12/16 05:16:04;;;;;;;26.13;7.67;;;-2.90;99.90;;;;;;2220270;64;20100;-33
2021/12/16 05:18:34;;;;;;;23.63;5.93;;;-2.90;99.90;;;;;;2220311;64;20092;-32
2021/12/16 05:21:15;;;;;;;22.60;6.53;;;-2.90;99.90;;;;;;2220244;64;20095;-33
2021/12/16 05:26:26;;;;;;;16.13;5.07;;;-2.90;99.90;;;;;;2220007;64;20096;-33
2021/12/16 05:28:56;;;;;;;18.20;6.17;;;-2.90;99.90;;;;;;2223456;64;20549;-34
2021/12/16 05:31:23;;;;;;;17.83;6.60;;;-2.90;99.90;;;;;;2216999;64;20171;-32
2021/12/16 05:33:50;;;;;;;29.47;8.30;;;-2.90;99.90;;;;;;2220205;64;20155;-41
2021/12/16 05:36:17;;;;;;;20.40;5.80;;;-2.90;99.90;;;;;;2217049;64;20315;-39
2021/12/16 05:38:44;;;;;;;22.27;6.17;;;-2.90;99.90;;;;;;2220203;64;20085;-33
2021/12/16 05:41:13;;;;;;;18.47;5.70;;;-2.80;99.90;;;;;;2223384;64;20096;-32
2021/12/16 05:43:39;;;;;;;26.13;6.70;;;-2.80;99.90;;;;;;2211012;64;20149;-33
2021/12/16 05:46:06;;;;;;;28.00;7.77;;;-2.80;99.90;;;;;;2204755;64;20187;-32
2021/12/16 05:48:36;;;;;;;21.93;5.50;;;-2.80;99.90;;;;;;2211139;64;20097;-40
2021/12/16 05:51:11;;;;;;;19.97;5.90;;;-2.80;99.90;;;;;;2211219;64;20164;-33
2021/12/16 05:53:38;;;;;;;20.83;6.80;;;-2.80;99.90;;;;;;2211286;64;20105;-33
2021/12/16 05:56:05;;;;;;;21.63;6.23;;;-2.80;99.90;;;;;;2211423;64;20163;-33
2021/12/16 05:58:31;;;;;;;21.43;6.30;;;-2.70;99.90;;;;;;2211319;64;20085;-32
2021/12/16 06:01:01;;;;;;;17.47;5.73;;;-2.80;99.90;;;;;;2211308;64;20204;-33
2021/12/16 06:03:29;;;;;;;15.30;5.27;;;-2.70;99.90;;;;;;2211194;64;20101;-31
2021/12/16 06:05:55;;;;;;;14.53;3.27;;;-2.70;99.90;;;;;;2211274;64;20473;-33
2021/12/16 06:08:22;;;;;;;19.07;6.00;;;-2.70;99.90;;;;;;2211182;64;20096;-45
2021/12/16 06:13:30;;;;;;;21.37;7.27;;;-2.70;99.90;;;;;;2211389;64;20157;-33
2021/12/16 06:27:06;;;;;;;;;;;-2.60;99.90;;;;;;2216472;64;20211;-32
2021/12/16 06:29:34;;;;;;;14.50;5.17;;;-2.60;99.90;;;;;;2215984;64;20045;-33
2021/12/16 06:32:01;;;;;;;17.13;5.87;;;-2.50;99.90;;;;;;2215685;64;20123;-32
2021/12/16 06:34:28;;;;;;;12.67;5.33;;;-2.60;99.90;;;;;;2215877;64;20210;-33
2021/12/16 06:36:54;;;;;;;16.80;6.33;;;-2.60;99.90;;;;;;2215839;64;20499;-34
2021/12/16 06:39:21;;;;;;;21.70;7.53;;;-2.50;99.90;;;;;;2216119;64;20170;-34
2021/12/16 06:41:48;;;;;;;18.37;5.93;;;-2.50;99.90;;;;;;2216118;64;20097;-33
2021/12/16 06:44:29;;;;;;;17.33;5.17;;;-2.50;99.90;;;;;;2215938;64;20111;-33
2021/12/16 06:47:01;;;;;;;11.60;4.20;;;-2.40;99.90;;;;;;2208956;64;20156;-34
2021/12/16 06:49:29;;;;;;;13.63;5.87;;;-2.40;99.90;;;;;;2211754;64;20164;-33
2021/12/16 06:52:00;;;;;;;19.13;5.87;;;-2.40;99.90;;;;;;2211611;64;20251;-34
2021/12/16 06:54:36;;;;;;;10.27;3.57;;;-2.40;99.90;;;;;;2211692;64;20468;-41
2021/12/16 06:57:20;;;;;;;20.63;6.40;;;-2.40;99.90;;;;;;2211820;64;20089;-34
2021/12/16 06:59:54;;;;;;;14.23;5.67;;;-2.30;99.90;;;;;;2211806;64;20085;-33
2021/12/16 07:05:06;;;;;;;;;;;-2.30;99.90;;;;;;2211964;64;20086;-35
2021/12/16 07:07:33;;;;;;;17.97;6.23;;;-2.30;99.90;;;;;;2211653;64;19988;-34
2021/12/16 07:10:00;;;;;;;26.60;7.57;;;-2.30;99.90;;;;;;2211674;64;20200;-34
2021/12/16 07:12:35;;;;;;;17.13;6.50;;;-2.40;99.90;;;;;;2211574;64;20621;-37
2021/12/16 07:15:11;;;;;;;18.70;6.40;;;-2.40;99.90;;;;;;2211690;64;20179;-34
2021/12/16 07:17:38;;;;;;;15.67;5.47;;;-2.40;99.90;;;;;;2214067;64;20461;-33
2021/12/16 07:20:07;;;;;;;13.27;5.27;;;-2.30;99.90;;;;;;2219927;64;20163;-36
2021/12/16 07:22:34;;;;;;;15.97;4.90;;;-2.30;99.90;;;;;;2219923;64;20109;-32
2021/12/16 07:25:03;;;;;;;17.97;6.50;;;-2.30;99.90;;;;;;2211816;64;20168;-34
2021/12/16 07:27:29;;;;;;;16.23;5.47;;;-2.30;99.90;;;;;;2209119;64;20089;-33
2021/12/16 07:29:56;;;;;;;24.77;5.57;;;-2.20;99.90;;;;;;2212376;64;20077;-51
2021/12/16 07:32:22;;;;;;;18.27;5.77;;;-2.20;99.90;;;;;;2212198;64;20303;-34
2021/12/16 07:34:49;;;;;;;13.73;4.83;;;-2.20;99.90;;;;;;2212296;64;20107;-33
2021/12/16 07:37:16;;;;;;;19.93;6.93;;;-2.20;99.90;;;;;;2212369;64;20532;-33
2021/12/16 07:39:44;;;;;;;19.43;6.30;;;-2.20;99.90;;;;;;2212390;64;20111;-35
2021/12/16 07:42:13;;;;;;;17.37;5.83;;;-2.20;99.90;;;;;;2208200;64;20153;-33
2021/12/16 07:44:39;;;;;;;14.77;4.70;;;-2.30;99.90;;;;;;2208319;64;20170;-33
2021/12/16 07:47:08;;;;;;;17.93;5.67;;;-2.30;99.90;;;;;;2208274;64;20078;-35
2021/12/16 07:49:41;;;;;;;8.80;3.67;;;-2.30;99.90;;;;;;2208491;64;20166;-33
2021/12/16 07:52:17;;;;;;;17.07;5.53;;;-2.20;99.90;;;;;;2208421;64;20700;-33
2021/12/16 07:54:44;;;;;;;24.50;6.63;;;-2.10;99.90;;;;;;2208513;64;20497;-33
2021/12/16 07:57:11;;;;;;;14.63;5.00;;;-2.10;99.90;;;;;;2208368;64;20090;-43
2021/12/16 07:59:37;;;;;;;14.23;6.07;;;-2.10;99.90;;;;;;2211591;64;20331;-33
2021/12/16 08:02:07;;;;;;;12.70;4.33;;;-2.20;99.90;;;;;;2209496;64;20093;-33
2021/12/16 08:04:39;;;;;;;14.87;5.47;;;-2.10;99.90;;;;;;2212211;64;20481;-32
2021/12/16 08:07:06;;;;;;;15.77;5.87;;;-2.10;99.90;;;;;;2212177;64;20193;-34
2021/12/16 08:09:35;;;;;;;15.83;6.63;;;-2.10;99.90;;;;;;2212233;64;20318;-33
2021/12/16 08:12:02;;;;;;;15.03;6.23;;;-2.10;99.90;;;;;;2211952;64;20101;-33
2021/12/16 08:14:29;;;;;;;15.57;4.90;;;-2.10;99.90;;;;;;2212232;64;20073;-43
2021/12/16 08:16:56;;;;;;;13.93;5.13;;;-2.10;99.90;;;;;;2209275;64;20589;-33
2021/12/16 08:19:23;;;;;;;18.83;6.57;;;-2.10;99.90;;;;;;2213210;64;20492;-34
2021/12/16 08:21:50;;;;;;;15.23;5.93;;;-2.00;99.90;;;;;;2216343;64;20624;-34
2021/12/16 08:24:17;;;;;;;14.50;6.27;;;-2.00;99.90;;;;;;2216383;64;20097;-38
2021/12/16 08:26:45;;;;;;;13.03;6.53;;;-2.00;99.90;;;;;;2213273;64;20104;-32
2021/12/16 08:29:11;;;;;;;17.37;6.33;;;-1.90;99.90;;;;;;2213375;64;20081;-32
2021/12/16 08:31:38;;;;;;;10.40;3.60;;;-2.00;99.90;;;;;;2216295;64;20101;-33
2021/12/16 08:34:05;;;;;;;19.00;6.00;;;-2.00;99.90;;;;;;2216267;64;20096;-33
2021/12/16 08:36:33;;;;;;;17.27;4.83;;;-2.00;99.90;;;;;;2216096;64;20612;-33
2021/12/16 08:39:00;;;;;;;16.07;6.60;;;-2.00;99.90;;;;;;2216388;64;20484;-33
2021/12/16 08:41:33;;;;;;;17.27;6.67;;;-2.00;99.90;;;;;;2216497;64;20097;-34
2021/12/16 08:43:59;;;;;;;17.90;5.73;;;-2.00;99.90;;;;;;2216526;64;20178;-37
2021/12/16 08:46:28;;;;;;;15.53;6.40;;;-1.90;99.90;;;;;;2216668;64;20104;-33
2021/12/16 08:48:55;;;;;;;17.33;7.03;;;-1.90;99.90;;;;;;2220285;64;20223;-32
2021/12/16 08:51:28;;;;;;;15.03;6.20;;;-2.00;99.90;;;;;;2217096;64;20159;-34
2021/12/16 08:53:54;;;;;;;20.87;7.20;;;-1.90;99.90;;;;;;2220303;64;20088;-33
2021/12/16 08:56:21;;;;;;;14.13;6.00;;;-1.80;99.90;;;;;;2220222;64;20081;-35
2021/12/16 08:58:48;;;;;;;15.00;6.67;;;-1.90;99.90;;;;;;2220251;64;20081;-34
2021/12/16 09:01:21;;;;;;;19.67;7.43;;;-1.90;99.90;;;;;;2223451;64;20097;-33
2021/12/16 09:03:47;;;;;;;15.70;7.00;;;-1.80;99.90;;;;;;2220246;64;20168;-38
2021/12/16 09:06:14;;;;;;;16.10;5.67;;;-2.00;99.90;;;;;;2223307;64;20185;-33
2021/12/16 09:08:41;;;;;;;14.87;6.10;;;-1.80;99.90;;;;;;2216628;64;20200;-34
2021/12/16 09:11:09;;;;;;;14.73;5.00;;;-1.90;99.90;;;;;;2220039;64;20101;-34
2021/12/16 09:13:38;;;;;;;17.73;7.67;;;-1.90;99.90;;;;;;2220008;64;20101;-33
2021/12/16 09:16:07;;;;;;;14.90;6.10;;;-1.80;99.90;;;;;;2220001;64;20100;-35
2021/12/16 09:18:34;;;;;;;19.90;6.67;;;-1.70;99.90;;;;;;2220111;64;20115;-32
2021/12/16 09:21:02;;;;;;;16.93;6.87;;;-1.70;99.90;;;;;;2220123;64;20115;-34
2021/12/16 09:23:28;;;;;;;17.33;7.60;;;-1.80;99.90;;;;;;2220100;64;20100;-32
2021/12/16 09:25:55;;;;;;;17.13;6.27;;;-1.80;99.90;;;;;;2216795;64;20472;-33
2021/12/16 09:28:23;;;;;;;16.67;7.27;;;-1.80;99.90;;;;;;2220124;64;20093;-33
2021/12/16 09:30:50;;;;;;;19.10;7.70;;;-1.80;99.90;;;;;;2220040;64;20100;-33
2021/12/16 09:33:18;;;;;;;17.70;7.57;;;-1.80;99.90;;;;;;2220215;64;20088;-33
2021/12/16 09:35:48;;;;;;;21.63;8.10;;;-1.80;99.90;;;;;;2220025;64;20225;-33
2021/12/16 09:38:16;;;;;;;16.93;7.00;;;-1.90;99.90;;;;;;2219930;64;20116;-33
2021/12/16 09:40:50;;;;;;;19.33;7.73;;;-1.90;99.90;;;;;;2216917;64;20089;-32
2021/12/16 09:43:18;;;;;;;14.87;6.17;;;-1.80;99.90;;;;;;2219992;64;20608;-32
2021/12/16 09:45:45;;;;;;;19.57;7.03;;;-1.80;99.90;;;;;;2219746;64;20565;-33
2021/12/16 09:48:12;;;;;;;17.23;7.33;;;-1.80;99.90;;;;;;2219793;64;20106;-33
2021/12/16 09:50:38;;;;;;;18.63;8.10;;;-1.70;99.90;;;;;;2219680;64;20120;-34
2021/12/16 09:53:05;;;;;;;14.97;6.90;;;-1.80;99.90;;;;;;2220017;64;20098;-36
2021/12/16 09:55:35;;;;;;;21.40;8.73;;;-1.70;99.90;;;;;;2219835;64;20140;-44
2021/12/16 09:58:02;;;;;;;11.97;4.70;;;-1.70;99.90;;;;;;2220255;64;20097;-34
2021/12/16 10:00:29;;;;;;;17.17;7.17;;;-1.60;99.90;;;;;;2219988;64;20484;-34
2021/12/16 10:02:57;;;;;;;15.73;5.60;;;-1.60;99.90;;;;;;2220097;64;20108;-33
2021/12/16 10:05:24;;;;;;;10.70;5.33;;;-1.60;99.90;;;;;;2220060;64;20119;-32
2021/12/16 10:07:51;;;;;;;17.17;5.73;;;-1.50;99.90;;;;;;2219932;64;20109;-31
2021/12/16 10:10:20;;;;;;;12.23;6.07;;;-1.50;99.90;;;;;;2220057;64;20085;-34
2021/12/16 10:12:50;;;;;;;16.50;6.33;;;-1.50;99.90;;;;;;2219826;64;20575;-33
2021/12/16 10:18:01;;;;;;;16.77;6.47;;;-1.40;99.90;;;;;;2219897;64;20112;-34
2021/12/16 10:20:31;;;;;;;8.90;4.33;;;-1.50;99.90;;;;;;2219756;64;20088;-41
2021/12/16 10:23:12;;;;;;;13.03;5.70;;;-1.50;99.90;;;;;;2220121;64;20468;-33
2021/12/16 10:25:40;;;;;;;14.07;5.10;;;-1.50;99.90;;;;;;2220039;64;20148;-31
2021/12/16 10:28:24;;;;;;;15.20;6.97;;;-1.50;99.90;;;;;;2220040;64;20088;-38
2021/12/16 10:31:04;;;;;;;16.73;7.27;;;-1.40;99.90;;;;;;2219951;64;20156;-34
2021/12/16 10:33:37;;;;;;;9.63;3.50;;;-1.40;99.90;;;;;;2216845;64;20534;-36
2021/12/16 10:36:19;;;;;;;14.17;5.83;;;-1.40;99.90;;;;;;2216926;64;20100;-32
2021/12/16 10:38:49;;;;;;;13.13;5.63;;;-1.40;99.90;;;;;;2215514;64;20100;-44
2021/12/16 10:41:20;;;;;;;11.03;5.00;;;-1.50;99.90;;;;;;2215737;64;20096;-37
2021/12/16 10:43:56;;;;;;;13.27;5.70;;;-1.50;99.90;;;;;;2215660;64;20112;-34
2021/12/16 10:46:28;;;;;;;11.77;5.03;;;-1.60;99.90;;;;;;2215027;64;20096;-34
2021/12/16 10:48:55;;;;;;;13.37;5.10;;;-1.60;99.90;;;;;;2211771;64;20085;-32
2021/12/16 10:51:28;;;;;;;14.43;6.00;;;-1.60;99.90;;;;;;2208495;64;20093;-33
2021/12/16 10:54:12;;;;;;;12.83;5.50;;;-1.50;99.90;;;;;;2211693;64;20097;-33
2021/12/16 10:57:09;;;;;;;13.87;5.73;;;-1.50;99.90;;;;;;2211875;64;20090;-34
2021/12/16 10:59:48;;;;;;;9.20;4.00;;;-1.50;99.90;;;;;;2211686;64;20096;-32
2021/12/16 11:02:21;;;;;;;14.60;5.53;;;-1.50;99.90;;;;;;2211593;64;20156;-34
2021/12/16 11:05:05;;;;;;;11.57;5.17;;;-1.60;99.90;;;;;;2211662;64;20096;-33
2021/12/16 11:07:48;;;;;;;13.03;6.17;;;-1.50;99.90;;;;;;2211863;64;20533;-34
2021/12/16 11:10:34;;;;;;;17.13;5.97;;;-1.60;99.90;;;;;;2216622;64;20550;-33
2021/12/16 11:13:09;;;;;;;13.53;5.27;;;-1.50;99.90;;;;;;2216734;64;20108;-33
2021/12/16 11:15:51;;;;;;;11.20;5.40;;;-1.50;99.90;;;;;;2216979;64;20111;-34
2021/12/16 11:18:21;;;;;;;11.47;5.37;;;-1.50;99.90;;;;;;2219687;64;20580;-33
2021/12/16 11:21:03;;;;;;;10.30;4.70;;;-1.50;99.90;;;;;;2219843;64;20098;-32
2021/12/16 11:23:35;;;;;;;11.30;5.57;;;-1.50;99.90;;;;;;2219756;64;20159;-32
2021/12/16 11:26:26;;;;;;;12.43;4.90;;;-1.50;99.90;;;;;;2219732;64;20177;-34
2021/12/16 11:28:53;;;;;;;13.27;3.27;;;-1.50;99.90;;;;;;2219907;64;20165;-32
2021/12/16 11:31:25;;;;;;;11.13;4.47;;;-1.50;99.90;;;;;;2219596;64;20123;-34
2021/12/16 11:33:57;;;;;;;9.90;4.57;;;-1.40;99.90;;;;;;2219705;64;20185;-39
2021/12/16 11:36:32;;;;;;;10.73;4.13;;;-1.50;99.90;;;;;;2219698;64;20548;-32
2021/12/16 11:39:17;;;;;;;13.43;5.15;;;-1.50;99.90;;;;;;2219798;64;20092;-32
2021/12/16 11:41:48;;;;;;;11.40;4.50;;;-1.50;99.90;;;;;;2219548;64;20567;-35
2021/12/16 11:44:26;;;;;;;8.33;3.87;;;-1.50;99.90;;;;;;2219680;64;20092;-33
2021/12/16 11:46:56;;;;;;;11.97;5.57;;;-1.40;99.90;;;;;;2219691;64;20101;-34
2021/12/16 11:49:28;;;;;;;9.33;4.77;;;-1.50;99.90;;;;;;2219623;64;20096;-35
2021/12/16 11:52:10;;;;;;;11.10;6.10;;;-1.50;99.90;;;;;;2219548;64;20097;-35
2021/12/16 11:54:56;;;;;;;9.50;4.43;;;-1.50;99.90;;;;;;2219660;64;20470;-37
2021/12/16 11:57:33;;;;;;;7.57;3.90;;;-1.40;99.90;;;;;;2219760;64;20088;-35
2021/12/16 12:00:11;;;;;;;5.87;3.00;;;-1.40;99.90;;;;;;2219518;64;20506;-36
2021/12/16 12:02:40;;;;;;;5.67;2.23;;;-1.40;99.90;;;;;;2219850;64;20197;-35
2021/12/16 12:05:15;;;;;;;5.70;2.37;;;-1.40;99.90;;;;;;2216723;64;20107;-41
2021/12/16 12:07:44;;;;;;;3.60;2.10;;;-1.40;99.90;;;;;;2219380;64;20457;-36
2021/12/16 12:10:11;;;;;;;2.77;1.70;;;-1.40;99.60;;;;;;2219671;64;20089;-32
2021/12/16 12:12:46;;;;;;;3.73;1.53;;;-1.30;99.80;;;;;;2220212;64;20085;-33
2021/12/16 12:15:15;;;;;;;2.85;1.85;;;-1.40;99.30;;;;;;2220277;64;20089;-39
2021/12/16 12:17:44;;;;;;;3.30;1.57;;;-1.30;99.40;;;;;;2220345;64;20104;-33
2021/12/16 12:20:12;;;;;;;4.17;2.33;;;-1.40;99.50;;;;;;2220268;64;20522;-36
2021/12/16 12:22:39;;;;;;;5.77;3.00;;;-1.30;99.80;;;;;;2220490;64;20351;-34
2021/12/16 12:25:06;;;;;;;8.73;2.83;;;-1.40;99.80;;;;;;2220370;64;20107;-35
2021/12/16 12:27:32;;;;;;;6.37;2.93;;;-1.40;99.90;;;;;;2220363;64;20156;-33
2021/12/16 12:30:00;;;;;;;5.97;2.60;;;-1.30;99.90;;;;;;2219977;64;20472;-31
2021/12/16 12:32:32;;;;;;;4.30;2.20;;;-1.40;99.90;;;;;;2219936;64;20709;-32
2021/12/16 12:35:07;;;;;;;4.40;2.80;;;-1.30;99.90;;;;;;2220331;64;20172;-33
2021/12/16 12:37:35;;;;;;;6.68;2.60;;;-1.30;99.90;;;;;;2215257;64;20195;-33
2021/12/16 12:40:23;;;;;;;4.23;2.07;;;-1.40;99.90;;;;;;2212066;64;20156;-34
2021/12/16 12:42:51;;;;;;;8.70;2.80;;;-1.30;99.90;;;;;;2211974;64;20156;-38
2021/12/16 12:45:19;;;;;;;5.30;2.97;;;-1.40;99.90;;;;;;2212078;64;20112;-34
2021/12/16 12:47:49;;;;;;;4.20;2.13;;;-1.30;99.90;;;;;;2212113;64;20629;-34
2021/12/16 12:50:25;;;;;;;5.03;1.70;;;-1.30;99.90;;;;;;2212257;64;20097;-34
2021/12/16 12:52:53;;;;;;;3.73;1.70;;;-1.30;99.90;;;;;;2212145;64;20109;-35
2021/12/16 12:55:37;;;;;;;4.20;1.93;;;-1.30;99.90;;;;;;2212126;64;20160;-34
2021/12/16 12:58:14;;;;;;;4.50;2.53;;;-1.30;99.90;;;;;;2211990;64;20089;-39
2021/12/16 13:00:46;;;;;;;2.80;1.40;;;-1.30;99.80;;;;;;2215315;64;20088;-34
2021/12/16 13:03:17;;;;;;;5.23;1.67;;;-1.30;99.70;;;;;;2215034;64;20089;-33
2021/12/16 13:06:08;;;;;;;2.20;1.10;;;-1.30;99.40;;;;;;2211938;64;20250;-34
2021/12/16 13:08:43;;;;;;;2.87;1.00;;;-1.30;99.50;;;;;;2215556;64;20150;-35
2021/12/16 13:11:13;;;;;;;1.90;1.27;;;-1.30;99.40;;;;;;2211297;64;20181;-36
2021/12/16 13:14:06;;;;;;;4.50;1.30;;;-1.30;99.40;;;;;;2208145;64;20842;-34
2021/12/16 13:25:54;;;;;;;2.90;1.10;;;-1.20;99.30;;;;;;2207885;64;20129;-35
2021/12/16 13:28:04;;;;;;;2.50;1.37;;;-1.30;99.10;;;;;;2207638;64;20156;-36
2021/12/16 13:30:50;;;;;;;4.00;1.53;;;-1.30;99.10;;;;;;2208041;64;20171;-33
2021/12/16 13:33:25;;;;;;;2.58;1.20;;;-1.20;99.20;;;;;;2205567;64;20171;-45
2021/12/16 13:36:02;;;;;;;2.27;1.03;;;-1.20;98.80;;;;;;2208171;64;20541;-33
2021/12/16 13:38:41;;;;;;;1.90;0.90;;;-1.30;99.00;;;;;;2208045;64;20268;-33
2021/12/16 13:41:16;;;;;;;5.37;1.53;;;-1.20;99.20;;;;;;2203657;64;20104;-39
2021/12/16 13:44:16;;;;;;;1.73;0.90;;;-1.20;99.20;;;;;;2214897;64;20168;-34
2021/12/16 13:47:20;;;;;;;1.93;1.00;;;-1.20;99.30;;;;;;2195586;65;20105;-35
2021/12/16 13:58:32;;;;;;;1.40;0.63;;;-1.30;99.60;;;;;;2192504;65;20450;-32
2021/12/16 14:01:36;;;;;;;1.83;1.17;;;-1.30;99.60;;;;;;2195545;65;20109;-35
2021/12/16 14:04:38;;;;;;;1.43;0.83;;;-1.30;99.70;;;;;;2195913;65;20597;-34
2021/12/16 14:10:19;;;;;;;1.73;0.93;;;-1.30;99.80;;;;;;2192821;65;20475;-34
2021/12/16 14:14:09;;;;;;;2.90;1.00;;;-1.40;99.70;;;;;;2195584;65;20625;-33
2021/12/16 14:16:34;;;;;;;1.63;0.70;;;-1.40;99.60;;;;;;2195884;65;20150;-35
2021/12/16 14:42:39;;;;;;;1.70;1.03;;;-1.50;99.10;;;;;;2216221;64;20096;-35
2021/12/16 14:45:32;;;;;;;2.70;1.17;;;-1.50;99.20;;;;;;2215898;64;20116;-33
2021/12/16 14:48:22;;;;;;;2.13;1.10;;;-1.50;99.30;;;;;;2218941;64;20154;-33
2021/12/16 14:50:57;;;;;;;4.00;1.60;;;-1.50;99.20;;;;;;2219961;64;20085;-33
2021/12/16 14:53:28;;;;;;;2.08;1.20;;;-1.50;99.10;;;;;;2219973;64;20100;-33
2021/12/16 14:56:01;;;;;;;1.60;0.67;;;-1.50;99.30;;;;;;2219827;64;20101;-33
2021/12/16 14:58:28;;;;;;;3.23;1.00;;;-1.50;99.30;;;;;;2219799;64;20624;-34
2021/12/16 15:00:58;;;;;;;1.10;0.50;;;-1.50;99.30;;;;;;2219866;64;20138;-33
2021/12/16 15:03:33;;;;;;;2.03;0.93;;;-1.50;99.30;;;;;;2219854;64;20487;-34
2021/12/16 15:06:03;;;;;;;2.07;1.00;;;-1.50;99.20;;;;;;2219729;64;20485;-37
2021/12/16 15:08:42;;;;;;;2.70;1.13;;;-1.50;99.30;;;;;;2219743;64;20374;-33
2021/12/16 15:11:12;;;;;;;4.90;0.97;;;-1.50;99.40;;;;;;2219802;64;20096;-44
2021/12/16 15:13:51;;;;;;;2.33;1.00;;;-1.50;99.40;;;;;;2223097;64;20088;-38
2021/12/16 15:16:51;;;;;;;2.70;1.17;;;-1.50;99.50;;;;;;2223097;64;20525;-32
2021/12/16 15:38:38;;;;;;;2.87;1.10;;;-1.50;99.70;;;;;;2219642;64;20135;-34
2021/12/16 15:43:55;;;;;;;2.25;1.48;;;-1.50;99.60;;;;;;2219924;64;20147;-34
2021/12/16 15:46:26;;;;;;;1.87;1.30;;;-1.50;99.80;;;;;;2219995;64;20093;-36
2021/12/16 15:48:52;;;;;;;2.03;1.13;;;-1.50;99.80;;;;;;2212865;64;20081;-34
2021/12/16 15:51:21;;;;;;;4.07;0.87;;;-1.50;99.80;;;;;;2216149;64;20093;-35
2021/12/16 15:53:52;;;;;;;3.07;1.60;;;-1.50;99.80;;;;;;2216177;64;20531;-40
2021/12/16 15:56:21;;;;;;;2.90;1.43;;;-1.50;99.70;;;;;;2216220;64;20163;-37
2021/12/16 15:58:59;;;;;;;1.93;1.10;;;-1.50;99.60;;;;;;2216136;64;20561;-42
2021/12/16 16:01:29;;;;;;;5.23;2.00;;;-1.50;99.70;;;;;;2216135;64;20598;-42
2021/12/16 16:03:57;;;;;;;3.90;1.77;;;-1.50;99.70;;;;;;2216091;64;20107;-36
2021/12/16 16:06:24;;;;;;;2.73;1.53;;;-1.50;99.70;;;;;;2216363;64;20140;-33
2021/12/16 16:08:56;;;;;;;2.20;1.03;;;-1.50;99.70;;;;;;2215855;64;20105;-35
2021/12/16 16:11:26;;;;;;;3.53;1.33;;;-1.50;99.70;;;;;;2216006;64;20168;-35
2021/12/16 16:13:57;;;;;;;2.40;1.40;;;-1.50;99.80;;;;;;2216181;64;20089;-35
2021/12/16 16:16:29;;;;;;;7.00;1.90;;;-1.50;99.80;;;;;;2216191;64;20103;-33
2021/12/16 16:18:58;;;;;;;3.73;1.30;;;-1.40;99.80;;;;;;2216130;64;20554;-50
2021/12/16 16:21:35;;;;;;;3.27;1.17;;;-1.40;99.80;;;;;;2223614;64;20513;-34
2021/12/16 16:24:12;;;;;;;1.87;0.93;;;-1.40;99.90;;;;;;2223468;64;20081;-35
2021/12/16 16:26:40;;;;;;;2.47;1.47;;;-1.40;99.90;;;;;;2223442;64;20093;-34
2021/12/16 16:29:09;;;;;;;6.83;2.07;;;-1.40;99.90;;;;;;2223541;64;20103;-34
2021/12/16 16:31:36;;;;;;;4.23;1.73;;;-1.40;99.90;;;;;;2223506;64;20100;-33
2021/12/16 16:34:09;;;;;;;3.57;1.53;;;-1.40;99.90;;;;;;2223499;64;20099;-33
2021/12/16 16:36:40;;;;;;;3.10;1.40;;;-1.40;99.90;;;;;;2223695;64;20163;-38
2021/12/16 16:39:07;;;;;;;3.73;1.50;;;-1.40;99.90;;;;;;2223587;64;20156;-33